Time;durP1;ratioP1;P1;durP2;ratioP2;P2;SDS_P1;SDS_P2;PMS_P1;PMS_P2;Temp;Humidity;BMP_temperature;BMP_pressure;BME280_temperature;BME280_humidity;BME280_pressure;Samples;Min_cycle;Max_cycle;Signal;HPM_P1;HPM_P2
2024/01/13 00:04:39;;;;;;;19.20;12.23;;;-0.20;42.00;;;;;;10324387;28;20238;-76
2024/01/13 00:09:43;;;;;;;19.60;11.97;;;-0.20;41.90;;;;;;10324382;28;20235;-76
2024/01/13 00:14:47;;;;;;;19.43;11.73;;;-0.10;42.10;;;;;;10324370;28;20254;-74
2024/01/13 00:19:50;;;;;;;20.77;13.50;;;-0.10;42.00;;;;;;10324042;28;20612;-74
2024/01/13 00:24:54;;;;;;;21.27;12.83;;;-0.10;42.20;;;;;;10323890;28;20238;-74
2024/01/13 00:29:58;;;;;;;20.70;11.97;;;-0.10;42.20;;;;;;10323930;28;20309;-74
2024/01/13 00:35:01;;;;;;;22.03;12.37;;;0.00;42.00;;;;;;10323662;28;20619;-74
2024/01/13 00:40:07;;;;;;;19.43;12.00;;;0.00;41.90;;;;;;10323261;28;20697;-74
2024/01/13 00:45:12;;;;;;;21.97;12.23;;;0.00;42.10;;;;;;10326867;28;20242;-74
2024/01/13 00:50:15;;;;;;;19.43;11.27;;;0.10;42.00;;;;;;10331564;28;20242;-74
2024/01/13 00:55:20;;;;;;;19.57;11.43;;;0.20;42.00;;;;;;10331625;28;20318;-74
2024/01/13 01:00:23;;;;;;;18.00;11.50;;;0.20;42.10;;;;;;10331292;28;21024;-74
2024/01/13 01:05:27;;;;;;;17.33;11.07;;;0.30;42.00;;;;;;10330891;28;20286;-74
2024/01/13 01:10:31;;;;;;;17.70;10.53;;;0.30;42.00;;;;;;10331133;28;20752;-74
2024/01/13 01:15:35;;;;;;;17.17;10.20;;;0.50;42.20;;;;;;10330744;28;20246;-73
2024/01/13 01:20:38;;;;;;;13.50;8.67;;;0.50;41.90;;;;;;10330298;28;20350;-74
2024/01/13 01:25:42;;;;;;;14.40;9.43;;;0.70;42.00;;;;;;10330714;28;20230;-73
2024/01/13 01:30:45;;;;;;;15.00;9.03;;;0.50;42.00;;;;;;10330100;28;20231;-73
2024/01/13 01:35:49;;;;;;;12.90;8.67;;;0.60;41.90;;;;;;10330123;28;20230;-73
2024/01/13 01:40:55;;;;;;;12.97;8.33;;;0.60;42.00;;;;;;10329838;28;20258;-73
2024/01/13 01:46:01;;;;;;;15.03;9.43;;;0.60;42.10;;;;;;10329504;28;20254;-73
2024/01/13 01:51:06;;;;;;;13.27;8.57;;;0.60;42.20;;;;;;10328971;28;20230;-73
2024/01/13 01:56:14;;;;;;;14.77;8.43;;;0.70;42.00;;;;;;10328980;28;20587;-73
2024/01/13 02:01:18;;;;;;;14.43;9.27;;;0.80;42.20;;;;;;10328901;28;20263;-73
2024/01/13 02:06:22;;;;;;;14.43;8.77;;;0.80;41.90;;;;;;10328977;28;20239;-74
2024/01/13 02:11:27;;;;;;;17.30;9.27;;;0.80;41.70;;;;;;10328555;28;20231;-73
2024/01/13 02:16:31;;;;;;;15.53;9.30;;;0.80;42.00;;;;;;10328593;28;20600;-73
2024/01/13 02:21:38;;;;;;;15.70;10.33;;;0.80;41.90;;;;;;10330728;28;20241;-73
2024/01/13 02:26:41;;;;;;;18.07;10.60;;;0.90;42.10;;;;;;10368635;28;20230;-73
2024/01/13 02:31:44;;;;;;;19.30;11.03;;;0.90;41.80;;;;;;10368084;28;20234;-74
2024/01/13 02:36:49;;;;;;;17.43;10.20;;;1.00;41.80;;;;;;10367959;28;20609;-73
2024/01/13 02:41:52;;;;;;;22.60;12.90;;;1.00;41.80;;;;;;10367768;28;20321;-73
2024/01/13 02:46:55;;;;;;;21.77;12.77;;;1.00;41.70;;;;;;10367724;28;20792;-73
2024/01/13 02:52:00;;;;;;;18.10;11.93;;;1.00;41.60;;;;;;10367556;28;20261;-73
2024/01/13 02:57:03;;;;;;;20.73;12.50;;;1.00;41.60;;;;;;10367153;28;20226;-73
2024/01/13 03:02:06;;;;;;;18.23;11.90;;;1.00;41.60;;;;;;10366920;28;20230;-73
2024/01/13 03:07:10;;;;;;;17.87;11.33;;;0.90;41.80;;;;;;10366572;28;20230;-73
2024/01/13 03:12:14;;;;;;;17.97;12.07;;;0.90;41.80;;;;;;10366779;28;20245;-73
2024/01/13 03:17:17;;;;;;;18.93;11.37;;;1.00;41.70;;;;;;10366677;28;20230;-73
2024/01/13 03:22:22;;;;;;;19.77;12.70;;;1.00;41.70;;;;;;10366405;28;20244;-73
2024/01/13 03:27:25;;;;;;;17.10;11.03;;;1.10;41.90;;;;;;10366244;28;20229;-73
2024/01/13 03:32:28;;;;;;;16.33;10.60;;;1.10;42.50;;;;;;10365828;28;20242;-73
2024/01/13 03:37:33;;;;;;;20.73;12.87;;;1.20;41.80;;;;;;10365927;28;20625;-73
2024/01/13 03:42:36;;;;;;;20.80;12.00;;;1.20;41.70;;;;;;10365342;28;20317;-73
2024/01/13 03:47:39;;;;;;;19.57;12.40;;;1.30;41.30;;;;;;10365690;28;20245;-73
2024/01/13 03:52:44;;;;;;;20.47;12.77;;;1.20;41.30;;;;;;10365509;28;20241;-73
2024/01/13 03:57:47;;;;;;;21.53;13.33;;;1.10;41.60;;;;;;10365295;28;20222;-73
2024/01/13 04:02:50;;;;;;;21.93;13.03;;;1.00;41.30;;;;;;10365222;28;20238;-73
2024/01/13 04:07:55;;;;;;;22.77;13.47;;;0.90;41.30;;;;;;10364977;28;20232;-73
2024/01/13 04:12:59;;;;;;;23.33;14.17;;;0.80;41.60;;;;;;10364716;28;20292;-73
2024/01/13 04:18:02;;;;;;;24.20;14.23;;;0.80;41.50;;;;;;10364154;28;20234;-73
2024/01/13 04:23:07;;;;;;;28.10;15.70;;;0.70;41.40;;;;;;10364341;28;20237;-73
2024/01/13 04:28:10;;;;;;;27.20;15.13;;;0.70;41.80;;;;;;10364878;28;20668;-73
2024/01/13 04:33:13;;;;;;;26.90;16.73;;;0.70;41.70;;;;;;10364396;28;20240;-73
2024/01/13 04:38:18;;;;;;;23.23;13.87;;;0.70;41.80;;;;;;10364474;28;20316;-73
2024/01/13 04:43:21;;;;;;;28.37;15.50;;;0.80;41.80;;;;;;10363974;28;22585;-73
2024/01/13 04:48:24;;;;;;;23.33;13.90;;;0.80;41.80;;;;;;10364305;28;20265;-73
2024/01/13 04:53:29;;;;;;;24.03;14.67;;;0.80;41.60;;;;;;10364109;28;20226;-73
2024/01/13 04:58:32;;;;;;;24.23;15.87;;;0.90;41.80;;;;;;10363969;28;20230;-73
2024/01/13 05:03:36;;;;;;;21.27;13.70;;;0.80;41.50;;;;;;10363628;28;20234;-73
2024/01/13 05:08:41;;;;;;;24.07;13.67;;;0.80;41.40;;;;;;10364021;28;20240;-73
2024/01/13 05:13:44;;;;;;;24.77;14.67;;;0.80;41.80;;;;;;10363748;28;20620;-73
2024/01/13 05:18:48;;;;;;;20.00;12.60;;;0.80;41.60;;;;;;10363686;28;20273;-73
2024/01/13 05:23:52;;;;;;;21.20;14.17;;;0.70;41.40;;;;;;10363550;28;20721;-74
2024/01/13 05:28:55;;;;;;;23.93;14.33;;;0.70;41.60;;;;;;10363507;28;20257;-73
2024/01/13 05:33:58;;;;;;;22.53;13.63;;;0.70;41.40;;;;;;10370106;28;20238;-73
2024/01/13 05:39:04;;;;;;;21.93;13.53;;;0.70;41.30;;;;;;10370187;28;20226;-74
2024/01/13 05:44:07;;;;;;;23.23;14.03;;;0.60;41.50;;;;;;10369935;28;20273;-73
2024/01/13 05:49:10;;;;;;;27.33;15.73;;;0.60;41.50;;;;;;10370214;28;20317;-73
2024/01/13 05:54:15;;;;;;;25.70;15.20;;;0.60;41.50;;;;;;10369672;28;20234;-73
2024/01/13 05:59:18;;;;;;;25.33;15.17;;;0.60;41.80;;;;;;10369879;28;20237;-73
2024/01/13 06:04:21;;;;;;;27.90;16.03;;;0.60;41.70;;;;;;10369085;28;20247;-73
2024/01/13 06:09:26;;;;;;;28.07;16.23;;;0.60;41.60;;;;;;10369180;28;20924;-73
2024/01/13 06:14:29;;;;;;;27.60;16.53;;;0.80;41.80;;;;;;10369106;28;20262;-73
2024/01/13 06:19:32;;;;;;;29.60;16.10;;;0.60;41.60;;;;;;10369029;28;20230;-73
2024/01/13 06:24:37;;;;;;;25.50;16.17;;;0.60;41.40;;;;;;10368545;28;20238;-73
2024/01/13 06:29:40;;;;;;;30.17;17.20;;;0.60;41.50;;;;;;10368492;28;20851;-73
2024/01/13 06:34:43;;;;;;;25.13;15.07;;;0.60;41.40;;;;;;10367906;28;20230;-73
2024/01/13 06:39:48;;;;;;;28.83;16.53;;;0.60;41.50;;;;;;10368026;28;20234;-74
2024/01/13 06:44:51;;;;;;;27.67;16.00;;;0.60;41.60;;;;;;10366698;28;20763;-74
2024/01/13 06:49:55;;;;;;;29.47;17.87;;;0.60;41.40;;;;;;10365275;28;20772;-74
2024/01/13 06:55:00;;;;;;;26.93;16.77;;;0.50;41.40;;;;;;10366321;28;20257;-74
2024/01/13 07:00:07;;;;;;;25.77;15.67;;;0.50;41.60;;;;;;10367039;28;20254;-74
2024/01/13 07:05:12;;;;;;;26.00;15.47;;;0.30;41.50;;;;;;10367241;28;20243;-77
2024/01/13 07:10:17;;;;;;;29.30;17.47;;;0.30;41.60;;;;;;10366893;28;20739;-74
2024/01/13 07:15:21;;;;;;;25.17;15.43;;;0.30;41.80;;;;;;10366613;28;20226;-74
2024/01/13 07:20:24;;;;;;;27.00;17.27;;;0.10;41.60;;;;;;10365977;28;20234;-74
2024/01/13 07:25:30;;;;;;;35.67;22.47;;;0.10;41.80;;;;;;10366177;28;20958;-74
2024/01/13 07:30:33;;;;;;;31.50;17.33;;;0.10;42.00;;;;;;10364944;28;20770;-75
2024/01/13 07:35:37;;;;;;;26.20;15.97;;;0.10;42.20;;;;;;10363818;28;20250;-74
2024/01/13 07:40:41;;;;;;;25.17;15.47;;;0.10;42.00;;;;;;10357855;28;20241;-74
2024/01/13 07:45:44;;;;;;;22.87;13.17;;;0.20;42.00;;;;;;10361735;28;20231;-75
2024/01/13 07:50:48;;;;;;;23.97;14.63;;;0.30;41.80;;;;;;10360442;28;20238;-74
2024/01/13 07:55:52;;;;;;;26.37;16.23;;;0.40;41.90;;;;;;10358294;28;20234;-74
2024/01/13 08:00:56;;;;;;;26.63;15.83;;;0.50;41.70;;;;;;10356362;28;20234;-74
2024/01/13 08:05:59;;;;;;;29.50;17.33;;;0.50;41.40;;;;;;10353225;28;20748;-74
2024/01/13 08:11:04;;;;;;;30.80;17.33;;;0.50;41.30;;;;;;10357579;28;20602;-74
2024/01/13 08:16:09;;;;;;;29.03;16.60;;;0.50;41.40;;;;;;10359520;28;20716;-74
2024/01/13 08:21:12;;;;;;;23.80;14.83;;;0.50;41.50;;;;;;10358800;28;20304;-74
2024/01/13 08:26:36;;;;;;;27.40;16.70;;;0.50;41.40;;;;;;10359408;28;20232;-74
2024/01/13 08:31:39;;;;;;;25.03;14.67;;;0.60;41.40;;;;;;10357516;28;20243;-74
2024/01/13 08:36:44;;;;;;;27.00;14.20;;;0.60;41.20;;;;;;10357133;28;20230;-74
2024/01/13 08:41:49;;;;;;;20.40;13.10;;;0.50;41.30;;;;;;10357558;28;20272;-74
2024/01/13 08:46:52;;;;;;;23.67;13.70;;;0.60;41.50;;;;;;10361387;28;20230;-75
2024/01/13 08:51:55;;;;;;;21.23;12.47;;;0.50;41.30;;;;;;10355990;28;20237;-75
2024/01/13 08:56:59;;;;;;;28.23;15.50;;;0.40;41.40;;;;;;10362397;28;20234;-75
2024/01/13 09:02:03;;;;;;;24.90;14.80;;;0.30;41.70;;;;;;10362397;28;20237;-75
2024/01/13 09:07:06;;;;;;;28.33;15.33;;;0.30;41.80;;;;;;10364932;28;20241;-74
2024/01/13 09:12:11;;;;;;;26.53;14.17;;;0.30;41.80;;;;;;10371291;28;20647;-75
2024/01/13 09:17:14;;;;;;;24.03;14.07;;;0.30;41.90;;;;;;10362985;28;20238;-75
2024/01/13 09:22:18;;;;;;;27.87;15.90;;;0.30;42.00;;;;;;10363660;28;20258;-72
2024/01/13 09:27:23;;;;;;;31.27;15.90;;;0.30;42.00;;;;;;10359453;28;20313;-72
2024/01/13 09:32:26;;;;;;;27.00;17.03;;;0.40;42.10;;;;;;10362263;28;20230;-71
2024/01/13 09:37:29;;;;;;;26.17;15.67;;;0.50;41.90;;;;;;10363172;28;20712;-72
2024/01/13 09:42:55;;;;;;;32.67;18.07;;;0.60;41.80;;;;;;10363427;28;20316;-72
2024/01/13 09:48:03;;;;;;;28.97;16.97;;;0.70;42.40;;;;;;10366077;28;20322;-72
2024/01/13 09:53:09;;;;;;;38.00;20.73;;;0.80;42.00;;;;;;10368346;28;20598;-72
2024/01/13 09:58:14;;;;;;;39.07;20.10;;;0.80;42.00;;;;;;10368896;28;20254;-72
2024/01/13 10:03:17;;;;;;;32.60;19.43;;;0.80;41.80;;;;;;10376942;28;20751;-72
2024/01/13 10:08:27;;;;;;;35.77;20.17;;;0.70;41.70;;;;;;10368944;28;20321;-72
2024/01/13 10:13:33;;;;;;;33.20;19.37;;;0.70;41.80;;;;;;10368744;28;20226;-72
2024/01/13 10:18:39;;;;;;;42.17;21.77;;;0.70;41.90;;;;;;10368420;28;20305;-71
2024/01/13 10:23:43;;;;;;;33.87;19.50;;;0.60;42.30;;;;;;10367352;28;20729;-74
2024/01/13 10:28:48;;;;;;;40.73;21.60;;;0.60;42.10;;;;;;10364655;28;20226;-75
2024/01/13 10:33:52;;;;;;;37.70;19.93;;;0.70;42.30;;;;;;10361459;28;20256;-75
2024/01/13 10:38:58;;;;;;;34.30;19.10;;;0.70;42.10;;;;;;10367033;28;20226;-75
2024/01/13 10:44:07;;;;;;;33.83;19.03;;;0.70;42.10;;;;;;10365176;28;20584;-75
2024/01/13 10:49:14;;;;;;;34.00;19.50;;;0.80;42.50;;;;;;10362762;28;20233;-74
2024/01/13 10:54:19;;;;;;;33.00;20.17;;;0.90;42.40;;;;;;10357831;28;20296;-73
2024/01/13 10:59:28;;;;;;;39.07;21.20;;;0.90;42.00;;;;;;10357122;28;20241;-75
2024/01/13 11:04:32;;;;;;;41.47;21.63;;;1.00;42.30;;;;;;10360410;28;20235;-76
2024/01/13 11:09:37;;;;;;;39.07;21.83;;;1.00;42.20;;;;;;10357160;28;20292;-76
2024/01/13 11:14:52;;;;;;;42.07;24.23;;;1.00;42.10;;;;;;10362904;28;20313;-76
2024/01/13 11:19:55;;;;;;;43.47;24.03;;;1.10;42.20;;;;;;10358986;28;20580;-76
2024/01/13 11:25:00;;;;;;;39.30;22.53;;;1.10;41.80;;;;;;10359999;28;20254;-76
2024/01/13 11:30:07;;;;;;;41.50;21.50;;;1.10;41.90;;;;;;10349309;28;20739;-73
2024/01/13 11:35:11;;;;;;;37.70;20.77;;;1.10;41.80;;;;;;10363574;28;20266;-73
2024/01/13 11:40:14;;;;;;;37.67;20.97;;;1.10;41.70;;;;;;10355609;28;20257;-73
2024/01/13 11:45:33;;;;;;;33.80;19.73;;;1.00;41.70;;;;;;10363297;28;20748;-73
2024/01/13 11:50:37;;;;;;;38.30;21.93;;;1.00;42.30;;;;;;10363283;28;20234;-73
2024/01/13 11:55:40;;;;;;;34.33;19.77;;;1.00;42.00;;;;;;10365303;28;20779;-73
2024/01/13 12:00:46;;;;;;;33.30;19.93;;;1.00;42.00;;;;;;10364185;28;20226;-73
2024/01/13 12:05:50;;;;;;;31.67;18.50;;;1.00;42.00;;;;;;10364214;28;20705;-73
2024/01/13 12:10:54;;;;;;;28.43;16.80;;;1.00;41.80;;;;;;10364441;28;20257;-73
2024/01/13 12:16:07;;;;;;;24.17;15.30;;;1.00;41.90;;;;;;10363811;28;20277;-73
2024/01/13 12:21:11;;;;;;;26.27;15.17;;;1.00;42.00;;;;;;10364029;28;20252;-73
2024/01/13 12:26:14;;;;;;;26.33;16.13;;;1.10;41.90;;;;;;10363858;28;20230;-73
2024/01/13 12:31:19;;;;;;;29.97;16.97;;;1.10;42.50;;;;;;10363831;28;20309;-73
2024/01/13 12:36:34;;;;;;;30.93;18.27;;;1.00;41.80;;;;;;10362710;28;20228;-73
2024/01/13 12:41:39;;;;;;;35.03;19.47;;;1.00;42.00;;;;;;10367721;28;20321;-73
2024/01/13 12:46:58;;;;;;;37.70;21.00;;;1.00;42.20;;;;;;10371888;28;20288;-72
2024/01/13 12:52:01;;;;;;;34.87;20.90;;;0.90;42.00;;;;;;10371614;28;20676;-73
2024/01/13 12:57:06;;;;;;;31.00;19.83;;;1.00;42.30;;;;;;10370859;28;20226;-73
2024/01/13 13:02:11;;;;;;;38.07;21.37;;;0.90;42.00;;;;;;10374106;28;20238;-74
2024/01/13 13:07:15;;;;;;;39.23;22.03;;;1.00;42.20;;;;;;10366073;28;20248;-74
2024/01/13 13:12:21;;;;;;;40.47;22.20;;;1.00;42.00;;;;;;10366797;28;20234;-74
2024/01/13 13:17:27;;;;;;;40.20;23.03;;;1.20;42.10;;;;;;10369355;28;20231;-75
2024/01/13 13:22:30;;;;;;;33.80;19.63;;;1.10;41.90;;;;;;10366978;28;20238;-77
2024/01/13 13:27:33;;;;;;;29.80;18.50;;;1.10;41.60;;;;;;10369026;28;20314;-75
2024/01/13 13:32:39;;;;;;;29.70;16.83;;;1.10;41.70;;;;;;10368290;28;20230;-75
2024/01/13 13:37:44;;;;;;;32.97;18.60;;;1.00;41.90;;;;;;10366079;28;20250;-75
2024/01/13 13:42:47;;;;;;;31.87;16.87;;;0.90;41.80;;;;;;10366518;28;20313;-75
2024/01/13 13:47:52;;;;;;;26.10;16.27;;;0.90;41.90;;;;;;10364911;28;20855;-75
2024/01/13 13:52:56;;;;;;;28.63;16.13;;;0.80;42.10;;;;;;10366953;28;20285;-75
2024/01/13 13:57:59;;;;;;;21.33;14.47;;;0.80;42.20;;;;;;10367477;28;20747;-75
2024/01/13 14:03:04;;;;;;;24.07;14.10;;;0.80;42.10;;;;;;10367116;28;20227;-75
2024/01/13 14:08:07;;;;;;;27.20;16.00;;;0.80;42.10;;;;;;10366887;28;20748;-75
2024/01/13 14:13:10;;;;;;;30.60;17.53;;;0.80;42.00;;;;;;10367047;28;20715;-75
2024/01/13 14:18:15;;;;;;;28.80;17.67;;;0.90;42.00;;;;;;10367119;28;20281;-75
2024/01/13 14:23:18;;;;;;;33.30;19.97;;;0.90;42.00;;;;;;10366627;28;20238;-75
2024/01/13 14:28:22;;;;;;;30.50;19.17;;;0.90;41.80;;;;;;10366707;28;20325;-75
2024/01/13 14:33:27;;;;;;;32.40;19.33;;;1.00;41.80;;;;;;10327717;28;1142527;-75
2024/01/13 14:38:31;;;;;;;28.37;17.00;;;1.00;41.80;;;;;;10368513;28;20317;-75
2024/01/13 14:43:34;;;;;;;25.80;15.83;;;1.00;41.70;;;;;;10368081;28;20230;-76
2024/01/13 14:48:39;;;;;;;22.70;14.40;;;0.90;41.60;;;;;;10367864;28;20262;-75
2024/01/13 14:53:42;;;;;;;30.27;17.93;;;0.90;41.70;;;;;;10367805;28;20246;-75
2024/01/13 14:58:45;;;;;;;27.57;17.83;;;0.90;41.60;;;;;;10367491;28;20241;-75
2024/01/13 15:03:50;;;;;;;29.83;18.13;;;0.90;41.60;;;;;;10358386;28;22217;-75
2024/01/13 15:08:53;;;;;;;26.20;16.60;;;0.80;41.80;;;;;;10367085;28;20246;-75
2024/01/13 15:13:56;;;;;;;27.67;16.60;;;0.80;41.80;;;;;;10366665;28;20321;-75
2024/01/13 15:19:02;;;;;;;27.13;16.10;;;0.90;41.80;;;;;;10366818;28;20309;-75
2024/01/13 15:24:06;;;;;;;25.67;16.60;;;1.00;41.80;;;;;;10366316;28;20938;-75
2024/01/13 15:29:10;;;;;;;26.30;16.27;;;1.00;41.60;;;;;;10366344;28;20325;-75
2024/01/13 15:34:14;;;;;;;24.33;15.10;;;1.00;41.60;;;;;;10366201;28;20381;-75
2024/01/13 15:39:18;;;;;;;24.83;16.03;;;1.10;41.70;;;;;;10366122;28;20609;-75
2024/01/13 15:44:21;;;;;;;24.97;15.80;;;1.10;41.50;;;;;;10365877;28;20252;-75
2024/01/13 15:49:27;;;;;;;22.33;14.97;;;1.00;41.50;;;;;;10366036;28;20227;-75
2024/01/13 15:54:31;;;;;;;25.57;15.40;;;1.00;41.60;;;;;;10365273;28;20237;-78
2024/01/13 15:59:34;;;;;;;26.77;16.10;;;1.00;41.60;;;;;;10365612;28;20701;-76
2024/01/13 16:04:38;;;;;;;23.23;15.33;;;1.00;41.70;;;;;;10365354;28;20770;-76
2024/01/13 16:09:44;;;;;;;27.00;17.77;;;0.90;41.70;;;;;;10365385;28;20301;-76
2024/01/13 16:14:48;;;;;;;25.57;16.50;;;0.90;41.70;;;;;;10365007;28;20232;-75
2024/01/13 16:20:12;;;;;;;21.83;14.07;;;0.90;41.70;;;;;;10364954;28;20250;-76
2024/01/13 16:25:18;;;;;;;21.40;14.43;;;0.90;41.60;;;;;;10364924;28;20230;-76
2024/01/13 16:30:22;;;;;;;24.30;15.50;;;0.90;41.60;;;;;;10364841;28;20661;-76
2024/01/13 16:35:27;;;;;;;26.10;16.47;;;0.90;41.60;;;;;;10364908;28;20230;-76
2024/01/13 16:40:31;;;;;;;22.63;14.90;;;1.00;41.70;;;;;;10364341;28;20788;-75
2024/01/13 16:45:35;;;;;;;25.73;15.80;;;1.00;41.60;;;;;;10358965;28;20643;-75
2024/01/13 16:50:39;;;;;;;25.57;15.93;;;1.00;41.40;;;;;;10364371;28;20564;-75
2024/01/13 16:55:43;;;;;;;23.43;14.83;;;1.00;41.30;;;;;;10363978;28;20308;-75
2024/01/13 17:00:46;;;;;;;24.23;15.93;;;0.90;41.10;;;;;;10364110;28;20248;-75
2024/01/13 17:05:51;;;;;;;22.07;14.47;;;0.90;41.30;;;;;;10364210;28;20645;-75
2024/01/13 17:10:55;;;;;;;26.20;16.57;;;0.80;41.40;;;;;;10362694;28;20312;-75
2024/01/13 17:15:58;;;;;;;22.43;14.13;;;0.80;41.50;;;;;;10362595;28;20317;-74
2024/01/13 17:21:02;;;;;;;23.87;15.13;;;0.80;41.70;;;;;;10363588;28;20242;-74
2024/01/13 17:26:06;;;;;;;26.00;15.40;;;1.00;41.80;;;;;;10364545;28;20262;-75
2024/01/13 17:31:10;;;;;;;21.83;13.60;;;0.90;41.60;;;;;;10370611;28;20739;-74
2024/01/13 17:36:15;;;;;;;23.73;15.40;;;0.90;41.60;;;;;;10370592;28;20338;-74
2024/01/13 17:41:18;;;;;;;24.20;15.03;;;1.00;41.70;;;;;;10370762;28;20234;-74
2024/01/13 17:46:23;;;;;;;21.83;14.90;;;1.00;41.50;;;;;;10370338;28;20579;-74
2024/01/13 17:51:28;;;;;;;25.00;15.80;;;1.00;41.50;;;;;;10369244;28;20238;-75
2024/01/13 17:56:32;;;;;;;22.33;15.23;;;1.00;41.60;;;;;;10369750;28;20230;-74
2024/01/13 18:01:36;;;;;;;24.10;15.57;;;0.90;41.50;;;;;;10369727;28;20313;-74
2024/01/13 18:06:41;;;;;;;23.17;16.37;;;0.90;41.60;;;;;;10369538;28;20231;-73
2024/01/13 18:11:44;;;;;;;23.57;15.10;;;1.00;41.80;;;;;;10369459;28;20289;-74
2024/01/13 18:16:48;;;;;;;22.23;15.27;;;0.90;41.70;;;;;;10369117;28;20265;-73
2024/01/13 18:21:53;;;;;;;28.30;18.13;;;0.90;41.80;;;;;;10369111;28;20773;-74
2024/01/13 18:26:57;;;;;;;29.23;17.13;;;1.00;42.10;;;;;;10368835;28;20288;-73
2024/01/13 18:32:00;;;;;;;25.87;16.90;;;1.00;41.90;;;;;;10368487;28;20234;-73
2024/01/13 18:37:05;;;;;;;24.20;16.63;;;1.00;41.90;;;;;;10367443;28;20309;-73
2024/01/13 18:42:09;;;;;;;25.80;16.23;;;1.10;41.90;;;;;;10367872;28;20234;-73
2024/01/13 18:47:12;;;;;;;32.33;20.13;;;1.20;41.80;;;;;;10368126;28;20265;-74
2024/01/13 18:52:16;;;;;;;31.27;18.60;;;1.20;41.70;;;;;;10367683;28;20238;-74
2024/01/13 18:57:20;;;;;;;33.90;20.53;;;1.30;41.70;;;;;;10367478;28;20663;-74
2024/01/13 19:02:23;;;;;;;30.67;18.80;;;1.30;41.60;;;;;;10367463;28;20234;-73
2024/01/13 19:07:28;;;;;;;27.00;16.93;;;1.40;41.60;;;;;;10367067;28;20776;-73
2024/01/13 19:12:32;;;;;;;27.73;17.33;;;1.20;41.60;;;;;;10366979;28;20317;-73
2024/01/13 19:17:36;;;;;;;24.53;15.67;;;1.10;41.30;;;;;;10366852;28;20234;-73
2024/01/13 19:22:40;;;;;;;23.97;14.93;;;1.10;41.30;;;;;;10366511;28;20318;-74
2024/01/13 19:27:43;;;;;;;26.77;16.13;;;1.10;41.30;;;;;;10366417;28;20754;-73
2024/01/13 19:32:47;;;;;;;24.07;16.50;;;1.10;41.20;;;;;;10366267;28;20357;-74
2024/01/13 19:37:52;;;;;;;32.27;19.63;;;1.20;41.10;;;;;;10365978;28;20744;-73
2024/01/13 19:42:55;;;;;;;26.47;18.30;;;1.00;40.90;;;;;;10365956;28;20708;-73
2024/01/13 19:47:58;;;;;;;25.87;16.93;;;1.00;40.80;;;;;;10365512;28;20234;-73
2024/01/13 19:53:04;;;;;;;22.67;14.50;;;1.00;41.00;;;;;;10365200;28;20640;-73
2024/01/13 19:58:08;;;;;;;20.43;14.80;;;0.90;40.90;;;;;;10365531;28;20243;-73
2024/01/13 20:03:11;;;;;;;19.60;13.43;;;0.90;40.80;;;;;;10365081;28;20842;-73
2024/01/13 20:08:17;;;;;;;20.93;14.30;;;0.90;40.90;;;;;;10362020;28;20234;-74
2024/01/13 20:13:20;;;;;;;16.40;12.23;;;0.80;40.90;;;;;;10362205;28;20752;-74
2024/01/13 20:18:24;;;;;;;17.37;11.33;;;1.00;41.10;;;;;;10356408;28;20954;-73
2024/01/13 20:23:29;;;;;;;17.40;12.43;;;0.80;40.90;;;;;;10358374;28;20756;-75
2024/01/13 20:28:32;;;;;;;13.27;11.43;;;0.80;41.00;;;;;;10362884;28;20222;-76
2024/01/13 20:33:35;;;;;;;13.40;10.23;;;0.90;41.10;;;;;;10363402;28;20224;-78
2024/01/13 20:38:40;;;;;;;12.70;9.57;;;1.00;41.10;;;;;;10349177;28;20702;-79
2024/01/13 20:43:43;;;;;;;12.43;9.83;;;1.00;41.10;;;;;;10358784;28;20232;-76
2024/01/13 20:48:47;;;;;;;11.10;9.23;;;0.80;41.00;;;;;;10357592;28;20241;-78
2024/01/13 20:53:53;;;;;;;11.63;9.83;;;0.80;41.80;;;;;;10358775;28;20234;-78
2024/01/13 20:58:58;;;;;;;13.33;10.67;;;0.70;41.20;;;;;;10365479;28;20280;-79
2024/01/13 21:04:01;;;;;;;13.00;10.23;;;0.80;41.40;;;;;;10366057;28;20322;-78
2024/01/13 21:09:06;;;;;;;14.57;11.80;;;0.80;41.40;;;;;;10362629;28;20226;-77
2024/01/13 21:14:10;;;;;;;14.73;11.47;;;0.90;41.60;;;;;;10368891;28;20731;-82
2024/01/13 21:19:13;;;;;;;15.30;12.00;;;0.80;41.40;;;;;;10376729;28;20229;-81
2024/01/13 21:24:17;;;;;;;15.47;13.00;;;0.80;41.50;;;;;;10370586;28;20235;-81
2024/01/13 21:29:22;;;;;;;19.93;15.17;;;0.80;41.60;;;;;;10377560;28;20245;-81
2024/01/13 21:34:26;;;;;;;18.90;14.00;;;0.70;41.70;;;;;;10374626;28;20777;-83
2024/01/13 21:39:30;;;;;;;17.60;13.90;;;0.70;41.70;;;;;;10376190;28;20570;-83
2024/01/13 21:44:34;;;;;;;17.00;12.97;;;0.70;41.90;;;;;;10375908;28;20230;-82
2024/01/13 21:49:37;;;;;;;19.00;14.37;;;0.70;42.00;;;;;;10375109;28;20330;-82
2024/01/13 21:54:42;;;;;;;20.37;14.07;;;0.70;42.00;;;;;;10384835;28;20322;-83
2024/01/13 21:59:45;;;;;;;16.80;12.93;;;0.70;42.10;;;;;;10374565;28;20312;-81
2024/01/13 22:04:49;;;;;;;19.17;13.90;;;1.00;42.00;;;;;;10377373;28;20284;-82
2024/01/13 22:09:54;;;;;;;18.23;13.03;;;0.90;42.00;;;;;;10371300;28;20261;-82
2024/01/13 22:14:57;;;;;;;15.33;12.50;;;0.90;42.00;;;;;;10380267;28;20225;-82
2024/01/13 22:20:00;;;;;;;17.83;14.13;;;1.00;41.90;;;;;;10372085;28;20218;-83
2024/01/13 22:25:07;;;;;;;14.57;12.00;;;1.00;42.00;;;;;;10369267;28;20242;-81
2024/01/13 22:30:11;;;;;;;14.90;11.80;;;0.90;41.80;;;;;;10374371;28;20286;-82
2024/01/13 22:35:15;;;;;;;15.13;11.40;;;0.90;41.80;;;;;;10376247;28;20873;-83
2024/01/13 22:40:19;;;;;;;14.47;11.63;;;0.90;41.90;;;;;;10376947;28;20662;-82
2024/01/13 22:45:23;;;;;;;15.67;12.03;;;0.80;41.80;;;;;;10376574;28;20222;-82
2024/01/13 22:50:27;;;;;;;15.23;12.23;;;1.00;42.20;;;;;;10374849;28;20234;-82
2024/01/13 22:55:31;;;;;;;14.23;11.37;;;0.80;42.10;;;;;;10375932;28;20230;-83
2024/01/13 23:00:39;;;;;;;14.00;10.97;;;0.80;42.20;;;;;;10375857;28;20637;-83
2024/01/13 23:05:43;;;;;;;13.07;10.60;;;0.90;42.10;;;;;;10368474;28;20258;-82
2024/01/13 23:10:48;;;;;;;16.20;11.03;;;1.00;42.20;;;;;;10373222;28;20234;-82
2024/01/13 23:15:51;;;;;;;14.37;10.40;;;0.90;42.10;;;;;;10375738;28;20226;-83
2024/01/13 23:20:54;;;;;;;14.90;11.30;;;1.10;42.10;;;;;;10370493;28;20218;-82
2024/01/13 23:25:59;;;;;;;15.57;11.37;;;0.90;41.90;;;;;;10371444;28;20710;-82
2024/01/13 23:31:04;;;;;;;16.50;11.50;;;1.00;42.00;;;;;;10370946;28;20233;-82
2024/01/13 23:36:08;;;;;;;16.27;12.00;;;1.00;42.00;;;;;;10370791;28;20227;-82
2024/01/13 23:41:13;;;;;;;16.90;12.20;;;1.00;41.90;;;;;;10368756;28;20284;-83
2024/01/13 23:46:16;;;;;;;15.47;12.13;;;1.10;42.00;;;;;;10368160;28;20646;-82
2024/01/13 23:51:19;;;;;;;17.37;12.93;;;1.10;42.00;;;;;;10373543;28;20938;-82
2024/01/13 23:56:25;;;;;;;18.83;13.43;;;1.00;41.90;;;;;;10371113;28;20636;-84
